aviador You're here:

KADF Decoded Metar

in
Report Time2017-05-29 02:56:00
UTC Time2017-05-29 03:59:19
Flight Rules vfr VFR
WindCalm
Visibility9999 m
Phenomena:N/A
Clouds:Overcast 065 Hf
Expected CloudBase > 400 ft AGL from Temp-Dew spread
Ceiling6,500 ft
Temp23°C
Dew Point22°C (94% RH)
QNH1014 hPa
Raw Report
KADF 290256Z AUTO 00000KT 10SM OVC065 23/22 A2994 RMK AO2 SLP139
T02330222 53009=

Extra information for KADF:More info

Social comments